Terminal Aerodrome Forecast
Issued by NWS

Home | Current Version | Previous Version | Text Only | Print | Product List | Glossary On
Versions: 1 2 3 4 5 6 7 8 9 10 11 12 13 14 15 16 17 18 19
871
FTUS45 KTFX 211746
TAFLWT
TAF
KLWT 211746Z 2118/2218 12006KT P6SM SCT070 BKN150
     FM220100 22009KT P6SM OVC090 PROB30 2205/2209 5SM -RA BKN030
     FM221000 25020G29KT P6SM SCT060 SCT200=

USA.gov is the U.S. government's official web portal to all federal, state and local government web resources and services.